Time;durP1;ratioP1;P1;durP2;ratioP2;P2;SDS_P1;SDS_P2;PMS_P1;PMS_P2;Temp;Humidity;BMP_temperature;BMP_pressure;BME280_temperature;BME280_humidity;BME280_pressure;Samples;Min_cycle;Max_cycle;Signal;HPM_P1;HPM_P2
2023/08/27 00:04:50;;;;;;;6.40;4.00;;;27.20;65.40;;;;;;224124;1261;22527;-53
2023/08/27 00:09:54;;;;;;;5.30;4.10;;;27.30;65.10;;;;;;226475;1266;23888;-56
2023/08/27 00:14:57;;;;;;;6.70;3.60;;;27.30;64.70;;;;;;223362;1255;201701;-58
2023/08/27 00:20:10;;;;;;;3.80;3.40;;;27.30;65.10;;;;;;222691;1263;22641;-57
2023/08/27 00:25:13;;;;;;;6.30;3.60;;;27.30;65.20;;;;;;222937;1260;22518;-56
2023/08/27 00:30:16;;;;;;;6.10;3.90;;;27.20;65.80;;;;;;222639;1268;22552;-54
2023/08/27 00:35:18;;;;;;;3.60;3.30;;;27.20;65.60;;;;;;222530;1261;25430;-58
2023/08/27 00:40:30;;;;;;;6.30;3.50;;;27.20;65.60;;;;;;222413;1256;22514;-55
2023/08/27 00:45:33;;;;;;;4.80;3.70;;;27.20;65.70;;;;;;222403;1262;22633;-55
2023/08/27 00:50:37;;;;;;;5.90;3.60;;;27.20;65.90;;;;;;222280;1266;22516;-58
2023/08/27 00:55:40;;;;;;;3.80;3.50;;;27.20;65.70;;;;;;222616;1257;22511;-57
2023/08/27 01:00:43;;;;;;;3.70;3.40;;;27.20;65.80;;;;;;222518;1264;23559;-56
2023/08/27 01:05:51;;;;;;;4.20;3.60;;;27.10;65.80;;;;;;222330;1255;22540;-58
2023/08/27 01:11:08;;;;;;;4.10;3.50;;;27.10;65.90;;;;;;222544;1263;25407;-56
2023/08/27 01:16:12;;;;;;;4.00;3.60;;;27.10;66.10;;;;;;222691;1263;22535;-57
2023/08/27 01:21:19;;;;;;;4.50;3.40;;;27.10;66.10;;;;;;222325;1262;24183;-56
2023/08/27 01:26:37;;;;;;;4.00;3.60;;;27.10;66.30;;;;;;222712;1261;22567;-55
2023/08/27 01:31:47;;;;;;;4.30;3.80;;;27.10;66.40;;;;;;226339;1254;24989;-55
2023/08/27 01:36:51;;;;;;;6.10;3.50;;;27.20;66.60;;;;;;222641;1261;22568;-56
2023/08/27 01:41:54;;;;;;;3.20;2.90;;;27.20;66.20;;;;;;225703;1266;22636;-54
2023/08/27 01:46:57;;;;;;;3.90;3.50;;;27.30;65.80;;;;;;222625;1262;22639;-58
2023/08/27 01:51:59;;;;;;;3.60;3.30;;;27.20;67.10;;;;;;222537;1266;22575;-59
2023/08/27 01:57:04;;;;;;;4.30;3.40;;;27.20;66.60;;;;;;222310;1268;22515;-59
2023/08/27 02:02:07;;;;;;;4.60;3.60;;;27.10;66.40;;;;;;222438;1260;23888;-57
2023/08/27 02:07:10;;;;;;;3.50;3.20;;;27.10;67.00;;;;;;222344;1268;22592;-58
2023/08/27 02:12:13;;;;;;;4.10;3.50;;;27.10;66.30;;;;;;222341;1268;22518;-57
2023/08/27 02:17:16;;;;;;;4.10;3.60;;;27.10;67.20;;;;;;222529;1257;23930;-59
2023/08/27 02:22:21;;;;;;;3.70;3.30;;;27.10;66.30;;;;;;222391;1254;23140;-57
2023/08/27 02:27:24;;;;;;;4.40;3.40;;;27.20;66.40;;;;;;222143;1260;22519;-56
2023/08/27 02:32:27;;;;;;;4.40;3.60;;;27.10;66.40;;;;;;222233;1261;24063;-57
2023/08/27 02:37:30;;;;;;;4.50;3.70;;;27.10;66.60;;;;;;222339;1262;22670;-57
2023/08/27 02:42:32;;;;;;;4.80;3.90;;;27.10;66.90;;;;;;222594;1254;25048;-52
2023/08/27 02:47:35;;;;;;;5.80;3.70;;;27.10;67.20;;;;;;222214;1268;22607;-57
2023/08/27 02:52:38;;;;;;;4.60;3.90;;;27.10;67.40;;;;;;222704;1260;22519;-59
2023/08/27 02:57:41;;;;;;;4.20;3.80;;;27.10;67.40;;;;;;222523;1264;23969;-57
2023/08/27 03:02:44;;;;;;;5.40;3.70;;;27.00;66.90;;;;;;224891;1261;22606;-55
2023/08/27 03:07:47;;;;;;;4.80;4.30;;;27.10;66.90;;;;;;227509;1266;22552;-55
2023/08/27 03:12:50;;;;;;;6.00;3.60;;;27.20;66.50;;;;;;227368;1257;25430;-55
2023/08/27 03:17:53;;;;;;;4.30;3.80;;;27.30;66.10;;;;;;227409;1261;22562;-56
2023/08/27 03:22:57;;;;;;;5.70;3.80;;;27.30;65.80;;;;;;223661;1266;23327;-57
2023/08/27 03:28:00;;;;;;;6.20;4.10;;;27.30;65.80;;;;;;222481;1260;22514;-56
2023/08/27 03:33:03;;;;;;;4.70;3.70;;;27.10;65.90;;;;;;225543;1268;22510;-56
2023/08/27 03:38:07;;;;;;;4.70;3.30;;;27.10;65.40;;;;;;223530;1268;24212;-56
2023/08/27 03:43:09;;;;;;;8.20;3.90;;;27.10;65.30;;;;;;225648;1266;23893;-55
2023/08/27 03:48:12;;;;;;;3.90;3.60;;;27.10;65.20;;;;;;222396;1266;22527;-57
2023/08/27 03:53:15;;;;;;;6.20;3.60;;;27.10;65.30;;;;;;222571;1267;22510;-57
2023/08/27 03:58:20;;;;;;;5.40;3.50;;;27.00;66.20;;;;;;222548;1266;22507;-57
2023/08/27 04:03:26;;;;;;;4.70;3.70;;;27.00;65.30;;;;;;222731;1263;22532;-57
2023/08/27 04:08:29;;;;;;;6.30;3.50;;;27.00;65.00;;;;;;222476;1267;22550;-57
2023/08/27 04:13:32;;;;;;;6.00;3.50;;;27.00;65.30;;;;;;222690;1263;22639;-56
2023/08/27 04:18:36;;;;;;;6.90;3.70;;;27.00;65.30;;;;;;222374;1266;22623;-57
2023/08/27 04:23:39;;;;;;;4.70;3.70;;;27.00;65.50;;;;;;222531;1266;22636;-57
2023/08/27 04:28:42;;;;;;;6.00;3.50;;;27.00;65.80;;;;;;222197;1263;22758;-57
2023/08/27 04:33:45;;;;;;;4.40;3.40;;;26.90;65.60;;;;;;222357;1269;22560;-56
2023/08/27 04:38:48;;;;;;;4.30;3.90;;;26.90;65.60;;;;;;222674;1263;22514;-55
2023/08/27 04:43:51;;;;;;;5.50;4.20;;;27.00;65.30;;;;;;222361;1268;23314;-57
2023/08/27 04:48:53;;;;;;;5.00;3.70;;;26.90;65.60;;;;;;222344;1267;22527;-57
2023/08/27 04:53:57;;;;;;;3.70;3.30;;;26.90;65.50;;;;;;222458;1254;22509;-59
2023/08/27 04:58:59;;;;;;;5.60;3.70;;;26.90;65.70;;;;;;222517;1268;22510;-57
2023/08/27 05:04:03;;;;;;;4.50;3.50;;;26.90;65.50;;;;;;222486;1256;22515;-56
2023/08/27 05:09:09;;;;;;;4.30;3.90;;;26.90;65.50;;;;;;222540;1250;22663;-57
2023/08/27 05:14:12;;;;;;;5.80;4.00;;;26.90;65.80;;;;;;222546;1268;25239;-57
2023/08/27 05:19:15;;;;;;;5.20;3.60;;;26.90;65.80;;;;;;222112;1269;22614;-57
2023/08/27 05:24:19;;;;;;;6.40;3.50;;;26.90;65.30;;;;;;222459;1268;22507;-55
2023/08/27 05:29:22;;;;;;;4.50;3.50;;;26.90;65.50;;;;;;222824;1266;22515;-57
2023/08/27 05:34:26;;;;;;;5.40;3.90;;;26.90;65.60;;;;;;222219;1268;24348;-54
2023/08/27 05:39:29;;;;;;;4.20;3.80;;;26.90;65.40;;;;;;222127;1266;22510;-56
2023/08/27 05:44:32;;;;;;;5.30;3.60;;;26.90;65.90;;;;;;222509;1266;22511;-58
2023/08/27 05:49:35;;;;;;;5.70;4.00;;;26.90;65.70;;;;;;222101;1263;22649;-56
2023/08/27 05:54:38;;;;;;;4.00;3.60;;;26.90;66.50;;;;;;222087;1269;22510;-54
2023/08/27 05:59:41;;;;;;;6.00;4.50;;;26.90;66.50;;;;;;222388;1268;22563;-55
2023/08/27 06:04:47;;;;;;;6.80;4.20;;;27.00;66.80;;;;;;222486;1264;22752;-54
2023/08/27 06:09:49;;;;;;;6.50;3.80;;;27.00;66.40;;;;;;222228;1256;22770;-57
2023/08/27 06:14:52;;;;;;;4.80;3.60;;;26.90;66.20;;;;;;222410;1267;24265;-56
2023/08/27 06:19:55;;;;;;;4.20;3.80;;;27.00;66.00;;;;;;222104;1268;22513;-56
2023/08/27 06:24:59;;;;;;;3.90;3.60;;;26.90;66.00;;;;;;222371;1266;24153;-58
2023/08/27 06:30:06;;;;;;;6.80;4.10;;;26.90;66.10;;;;;;222428;1268;24344;-60
2023/08/27 06:35:09;;;;;;;4.20;3.70;;;26.90;66.50;;;;;;222408;1261;25348;-56
2023/08/27 06:40:14;;;;;;;4.60;4.20;;;26.90;66.60;;;;;;222516;1260;25391;-55
2023/08/27 06:45:18;;;;;;;4.30;4.00;;;26.90;66.70;;;;;;222817;1266;22650;-57
2023/08/27 06:50:21;;;;;;;4.20;3.90;;;27.00;66.70;;;;;;222358;1265;22536;-56
2023/08/27 06:55:24;;;;;;;3.90;3.50;;;26.90;66.80;;;;;;222196;1261;25357;-57
2023/08/27 07:00:35;;;;;;;6.10;3.80;;;27.00;66.60;;;;;;222385;1266;24340;-56
2023/08/27 07:05:38;;;;;;;4.00;3.30;;;27.00;66.40;;;;;;222088;1266;22694;-56
2023/08/27 07:10:41;;;;;;;4.60;3.40;;;27.00;66.50;;;;;;222281;1265;24069;-56
2023/08/27 07:15:44;;;;;;;6.20;3.80;;;27.00;66.30;;;;;;222516;1268;22611;-56
2023/08/27 07:20:47;;;;;;;4.00;3.50;;;27.00;66.30;;;;;;222137;1264;22514;-57
2023/08/27 07:25:50;;;;;;;5.80;3.50;;;27.10;66.40;;;;;;222466;1269;22521;-57
2023/08/27 07:30:57;;;;;;;7.40;3.90;;;27.10;66.60;;;;;;222270;1268;22560;-54
2023/08/27 07:36:00;;;;;;;5.40;3.60;;;27.00;67.00;;;;;;222220;1261;22510;-56
2023/08/27 07:41:06;;;;;;;9.40;4.20;;;26.70;67.80;;;;;;222394;1268;22639;-54
2023/08/27 07:46:09;;;;;;;5.50;3.80;;;26.40;68.80;;;;;;222636;1261;25329;-56
2023/08/27 07:51:12;;;;;;;5.80;4.10;;;26.20;69.30;;;;;;222276;1263;23931;-56
2023/08/27 07:56:16;;;;;;;6.00;3.90;;;26.20;70.60;;;;;;222439;1254;22798;-54
2023/08/27 08:01:21;;;;;;;7.00;4.10;;;26.10;69.80;;;;;;222557;1254;22508;-56
2023/08/27 08:06:25;;;;;;;5.60;3.60;;;26.10;68.50;;;;;;222144;1263;23825;-53
2023/08/27 08:11:28;;;;;;;7.80;4.00;;;26.20;68.00;;;;;;222501;1261;24231;-55
2023/08/27 08:16:31;;;;;;;5.50;3.20;;;26.20;67.70;;;;;;222226;1266;22527;-57
2023/08/27 08:21:34;;;;;;;4.60;3.60;;;25.70;68.30;;;;;;222142;1267;24099;-55
2023/08/27 08:26:37;;;;;;;3.90;3.20;;;25.60;68.70;;;;;;222527;1269;22529;-57
2023/08/27 08:31:44;;;;;;;5.40;4.10;;;25.50;68.30;;;;;;222142;1264;22519;-55
2023/08/27 08:36:50;;;;;;;5.50;3.30;;;25.60;68.80;;;;;;222343;1260;22633;-55
2023/08/27 08:42:09;;;;;;;5.80;3.50;;;25.90;68.40;;;;;;222525;1254;23933;-56
2023/08/27 08:47:18;;;;;;;3.70;3.40;;;26.10;67.60;;;;;;222368;1264;22646;-56
2023/08/27 08:52:30;;;;;;;5.70;3.50;;;26.20;67.40;;;;;;222295;1261;22563;-53
2023/08/27 08:57:49;;;;;;;6.30;3.50;;;26.20;68.00;;;;;;222281;1268;23888;-53
2023/08/27 09:02:53;;;;;;;6.10;3.40;;;26.30;67.50;;;;;;222310;1264;25303;-53
2023/08/27 09:07:57;;;;;;;4.20;2.80;;;26.40;67.70;;;;;;222543;1268;22902;-54
2023/08/27 09:13:05;;;;;;;3.40;3.00;;;26.30;67.40;;;;;;222314;1260;23687;-55
2023/08/27 09:18:07;;;;;;;3.80;3.50;;;26.20;67.50;;;;;;222095;1251;24058;-55
2023/08/27 09:23:13;;;;;;;5.00;3.60;;;26.30;68.20;;;;;;222167;1260;22498;-52
2023/08/27 09:28:18;;;;;;;4.90;4.30;;;26.20;69.00;;;;;;222024;1254;22539;-58
2023/08/27 09:33:35;;;;;;;10.30;4.20;;;26.10;70.50;;;;;;222221;1268;24199;-58
2023/08/27 09:38:40;;;;;;;6.20;4.50;;;26.00;70.70;;;;;;222339;1268;22642;-58
2023/08/27 09:43:55;;;;;;;8.40;5.90;;;26.00;71.10;;;;;;222259;1254;24196;-55
2023/08/27 09:49:04;;;;;;;7.00;5.20;;;25.80;72.00;;;;;;222389;1254;24216;-56
2023/08/27 09:54:15;;;;;;;11.70;5.40;;;25.70;72.90;;;;;;222054;1263;22645;-54
2023/08/27 09:59:18;;;;;;;7.10;4.70;;;25.50;73.20;;;;;;222375;1256;24209;-55
2023/08/27 10:04:23;;;;;;;11.50;4.90;;;25.60;72.60;;;;;;222592;1260;22515;-52
2023/08/27 10:09:34;;;;;;;7.10;4.70;;;25.80;72.20;;;;;;222364;1261;24262;-54
2023/08/27 10:14:40;;;;;;;5.70;5.20;;;25.90;71.50;;;;;;222389;1266;22517;-61
2023/08/27 10:19:43;;;;;;;7.90;5.00;;;25.40;72.10;;;;;;222181;1261;25396;-57
2023/08/27 10:24:47;;;;;;;6.00;4.90;;;24.80;73.90;;;;;;222414;1263;22529;-56
2023/08/27 10:29:52;;;;;;;7.50;4.90;;;24.70;74.40;;;;;;222405;1253;24222;-59
2023/08/27 10:34:57;;;;;;;5.40;5.00;;;24.30;75.80;;;;;;222439;1264;22540;-58
2023/08/27 10:40:08;;;;;;;7.50;5.20;;;24.10;77.10;;;;;;222738;1260;25535;-57
2023/08/27 10:45:18;;;;;;;5.20;4.70;;;23.90;76.70;;;;;;222604;1267;22545;-55
2023/08/27 10:50:21;;;;;;;5.50;5.10;;;24.10;76.20;;;;;;222362;1260;23361;-56
2023/08/27 10:55:37;;;;;;;8.80;4.80;;;23.90;76.60;;;;;;222343;1260;22644;-58
2023/08/27 11:01:13;;;;;;;7.70;4.80;;;24.10;75.80;;;;;;222579;1263;25164;-55
2023/08/27 11:06:17;;;;;;;5.80;5.00;;;23.90;76.20;;;;;;222609;1264;25340;-57
2023/08/27 11:11:25;;;;;;;10.10;5.60;;;23.90;75.70;;;;;;222041;1261;23162;-60
2023/08/27 11:16:29;;;;;;;10.40;5.60;;;23.90;75.60;;;;;;222272;1260;25463;-59
2023/08/27 11:21:42;;;;;;;8.00;5.80;;;23.90;76.40;;;;;;222466;1257;23879;-57
2023/08/27 11:26:47;;;;;;;7.30;4.70;;;24.40;74.90;;;;;;222486;1260;22662;-57
2023/08/27 11:32:01;;;;;;;9.70;5.70;;;24.70;73.70;;;;;;222578;1254;22641;-59
2023/08/27 11:37:06;;;;;;;5.30;4.80;;;24.90;72.80;;;;;;222305;1261;22521;-60
2023/08/27 11:42:14;;;;;;;5.80;5.30;;;25.00;72.60;;;;;;222892;1260;24191;-59
2023/08/27 11:47:17;;;;;;;7.20;5.30;;;25.10;73.10;;;;;;222751;1264;24470;-56
2023/08/27 11:52:20;;;;;;;5.60;5.00;;;24.90;74.00;;;;;;222819;1256;22706;-58
2023/08/27 11:57:23;;;;;;;5.10;4.70;;;25.00;73.60;;;;;;222198;1257;24233;-58
2023/08/27 12:02:27;;;;;;;7.30;5.20;;;24.80;74.90;;;;;;222537;1256;22638;-58
2023/08/27 12:07:30;;;;;;;8.00;5.20;;;25.00;74.60;;;;;;222666;1263;22625;-57
2023/08/27 12:12:38;;;;;;;8.60;5.30;;;25.20;73.60;;;;;;222346;1263;22737;-59
2023/08/27 12:17:41;;;;;;;7.30;5.20;;;25.20;73.70;;;;;;222494;1261;211784;-58
2023/08/27 12:22:45;;;;;;;12.00;5.10;;;25.10;74.40;;;;;;222624;1267;25356;-58
2023/08/27 12:27:48;;;;;;;8.70;4.60;;;25.10;73.90;;;;;;222647;1268;22587;-58
2023/08/27 12:32:54;;;;;;;6.70;4.70;;;25.00;73.70;;;;;;222183;1264;23142;-57
2023/08/27 12:37:57;;;;;;;5.80;5.20;;;25.10;73.20;;;;;;222700;1261;22652;-56
2023/08/27 12:43:01;;;;;;;4.70;4.30;;;25.20;72.60;;;;;;222570;1268;25227;-56
2023/08/27 12:48:05;;;;;;;6.20;4.50;;;25.20;72.20;;;;;;222186;1260;25332;-57
2023/08/27 12:53:08;;;;;;;4.80;4.30;;;25.30;72.40;;;;;;222678;1264;22633;-57
2023/08/27 12:58:10;;;;;;;7.40;4.50;;;25.40;72.20;;;;;;222253;1253;22521;-58
2023/08/27 13:03:14;;;;;;;7.90;5.00;;;25.40;72.50;;;;;;222184;1261;22768;-58
2023/08/27 13:08:18;;;;;;;10.00;4.60;;;25.40;72.50;;;;;;222619;1244;25359;-53
2023/08/27 13:13:22;;;;;;;10.70;5.60;;;25.40;72.10;;;;;;222318;1267;25227;-56
2023/08/27 13:18:28;;;;;;;8.60;4.70;;;25.50;72.30;;;;;;226596;1263;22662;-56
2023/08/27 13:23:31;;;;;;;7.10;4.60;;;25.80;71.10;;;;;;222444;1260;22560;-56
2023/08/27 13:28:34;;;;;;;5.40;4.00;;;26.00;70.80;;;;;;222598;1256;22515;-56
2023/08/27 13:33:37;;;;;;;6.80;4.30;;;26.00;70.10;;;;;;222655;1262;24257;-56
2023/08/27 13:38:42;;;;;;;10.40;4.50;;;26.00;70.10;;;;;;222743;1268;24206;-57
2023/08/27 13:43:45;;;;;;;11.30;4.80;;;25.90;71.30;;;;;;222331;1261;25470;-57
2023/08/27 13:48:49;;;;;;;8.70;4.60;;;26.00;71.40;;;;;;222425;1265;25310;-58
2023/08/27 13:53:53;;;;;;;6.00;4.70;;;26.00;71.30;;;;;;222431;1256;25269;-55
2023/08/27 13:58:57;;;;;;;8.50;5.00;;;26.10;72.00;;;;;;222483;1254;22872;-56
2023/08/27 14:04:01;;;;;;;6.40;4.80;;;26.20;72.50;;;;;;222127;1247;22515;-57
2023/08/27 14:09:07;;;;;;;4.40;4.00;;;26.20;71.90;;;;;;222092;1253;22515;-57
2023/08/27 14:14:17;;;;;;;8.60;5.10;;;26.20;71.90;;;;;;222535;1260;22931;-57
2023/08/27 14:19:20;;;;;;;5.70;5.20;;;26.30;72.70;;;;;;222522;1265;22744;-57
2023/08/27 14:24:25;;;;;;;7.10;6.00;;;26.40;73.80;;;;;;222378;1256;22653;-59
2023/08/27 14:29:29;;;;;;;6.70;6.00;;;26.40;74.70;;;;;;222765;1260;24059;-57
2023/08/27 14:34:34;;;;;;;10.20;6.60;;;26.30;74.50;;;;;;222707;1263;23915;-58
2023/08/27 14:39:38;;;;;;;6.40;5.70;;;26.40;75.70;;;;;;222291;1260;22514;-58
2023/08/27 14:44:43;;;;;;;7.70;5.90;;;26.40;76.70;;;;;;222258;1263;22999;-59
2023/08/27 14:49:48;;;;;;;11.50;6.50;;;26.50;77.10;;;;;;222510;1263;26168;-56
2023/08/27 14:54:51;;;;;;;6.80;6.10;;;26.50;77.80;;;;;;222322;1253;24269;-57
2023/08/27 14:59:56;;;;;;;7.50;5.50;;;26.60;75.80;;;;;;222294;1254;25328;-56
2023/08/27 15:05:00;;;;;;;7.90;6.20;;;26.60;75.40;;;;;;222128;1256;26671;-56
2023/08/27 15:10:05;;;;;;;8.90;5.70;;;26.50;74.00;;;;;;223650;1253;22789;-59
2023/08/27 15:15:09;;;;;;;5.80;5.30;;;26.50;73.40;;;;;;222965;1260;22511;-60
2023/08/27 15:20:14;;;;;;;5.40;4.90;;;26.60;72.50;;;;;;223126;1260;22615;-58
2023/08/27 15:25:18;;;;;;;32.50;13.40;;;26.50;72.20;;;;;;222859;1262;22632;-68
2023/08/27 15:30:22;;;;;;;46.50;17.10;;;26.30;71.50;;;;;;223267;1266;22603;-61
2023/08/27 15:35:27;;;;;;;23.90;10.30;;;26.20;71.70;;;;;;221936;1265;22524;-58
2023/08/27 15:40:30;;;;;;;18.60;7.50;;;26.10;71.00;;;;;;222617;1260;22608;-58
2023/08/27 15:45:35;;;;;;;12.00;6.10;;;26.10;70.60;;;;;;222249;1247;24221;-57
2023/08/27 15:50:38;;;;;;;12.90;5.40;;;25.90;70.20;;;;;;230113;1263;22469;-56
2023/08/27 15:55:41;;;;;;;12.00;5.10;;;25.80;69.60;;;;;;222196;1259;24192;-55
2023/08/27 16:00:46;;;;;;;10.80;5.60;;;26.00;69.40;;;;;;223849;1260;25172;-56
2023/08/27 16:05:55;;;;;;;7.10;4.90;;;26.00;69.90;;;;;;222500;1263;23665;-58
2023/08/27 16:11:00;;;;;;;9.10;4.90;;;25.80;69.60;;;;;;222576;1260;22521;-59
2023/08/27 16:16:04;;;;;;;6.20;4.40;;;25.80;70.30;;;;;;222566;1262;24256;-58
2023/08/27 16:21:07;;;;;;;9.80;5.10;;;25.70;70.30;;;;;;222593;1261;22514;-56
2023/08/27 16:26:14;;;;;;;5.10;4.30;;;25.70;70.50;;;;;;223071;1263;23528;-58
2023/08/27 16:31:24;;;;;;;10.10;5.30;;;25.80;70.10;;;;;;222486;1260;24202;-57
2023/08/27 16:36:28;;;;;;;8.10;5.20;;;25.80;70.50;;;;;;222817;1260;24151;-57
2023/08/27 16:41:35;;;;;;;7.20;5.00;;;25.60;70.80;;;;;;222672;1254;24196;-55
2023/08/27 16:46:49;;;;;;;7.70;5.60;;;25.40;70.90;;;;;;223081;1260;22656;-58
2023/08/27 16:51:53;;;;;;;6.10;4.80;;;25.30;71.80;;;;;;222610;1263;25328;-57
2023/08/27 16:56:56;;;;;;;7.20;5.20;;;25.30;71.40;;;;;;222710;1261;22594;-56
2023/08/27 17:02:00;;;;;;;11.40;5.70;;;25.30;71.30;;;;;;222704;1246;24180;-56
2023/08/27 17:07:04;;;;;;;8.60;5.20;;;25.40;71.20;;;;;;222838;1266;22592;-55
2023/08/27 17:12:09;;;;;;;5.20;4.70;;;25.20;71.40;;;;;;222583;1257;25278;-52
2023/08/27 17:17:13;;;;;;;9.80;4.60;;;25.10;71.40;;;;;;222689;1263;25358;-56
2023/08/27 17:22:18;;;;;;;7.20;3.90;;;25.10;70.90;;;;;;223137;1263;22517;-56
2023/08/27 17:27:23;;;;;;;5.70;3.90;;;25.30;70.20;;;;;;223065;1261;25595;-56
2023/08/27 17:32:26;;;;;;;5.20;3.60;;;25.30;69.30;;;;;;222684;1260;25359;-55
2023/08/27 17:37:33;;;;;;;5.10;3.60;;;25.20;69.20;;;;;;222529;1263;23879;-57
2023/08/27 17:42:37;;;;;;;4.60;3.10;;;25.20;69.20;;;;;;222410;1253;23331;-55
2023/08/27 17:48:02;;;;;;;4.60;3.80;;;25.20;69.20;;;;;;222536;1254;24299;-58
2023/08/27 17:53:07;;;;;;;3.60;3.30;;;25.20;69.00;;;;;;222724;1261;24378;-57
2023/08/27 17:58:11;;;;;;;3.40;3.10;;;25.00;69.00;;;;;;222504;1257;25473;-58
2023/08/27 18:03:15;;;;;;;5.80;3.90;;;25.00;69.30;;;;;;222708;1260;24364;-57
2023/08/27 18:08:22;;;;;;;5.50;3.60;;;25.10;68.90;;;;;;222957;1261;22517;-57
2023/08/27 18:13:27;;;;;;;8.40;3.40;;;25.30;68.50;;;;;;222935;1256;23141;-55
2023/08/27 18:18:31;;;;;;;3.80;3.50;;;25.40;68.30;;;;;;222895;1254;25275;-57
2023/08/27 18:23:35;;;;;;;5.50;4.00;;;25.50;68.50;;;;;;222875;1256;22541;-57
2023/08/27 18:28:39;;;;;;;8.60;3.90;;;25.50;68.50;;;;;;222733;1263;22519;-56
2023/08/27 18:33:45;;;;;;;4.60;3.90;;;25.30;69.20;;;;;;222490;1253;22527;-59
2023/08/27 18:38:52;;;;;;;6.90;3.70;;;25.20;69.40;;;;;;222459;1258;25415;-62
2023/08/27 18:43:57;;;;;;;4.50;3.60;;;25.00;69.40;;;;;;222986;1263;22521;-61
2023/08/27 18:49:09;;;;;;;13.60;3.30;;;24.70;70.60;;;;;;222465;1267;24221;-61
2023/08/27 18:54:14;;;;;;;3.80;3.00;;;24.70;69.70;;;;;;222526;1266;25784;-61
2023/08/27 18:59:20;;;;;;;6.30;3.20;;;24.60;69.60;;;;;;222719;1259;23950;-61
2023/08/27 19:04:33;;;;;;;6.20;2.70;;;24.60;69.40;;;;;;222561;1262;22761;-60
2023/08/27 19:09:38;;;;;;;6.40;2.60;;;24.60;69.30;;;;;;222388;1261;25346;-60
2023/08/27 19:14:44;;;;;;;2.30;2.10;;;24.70;69.00;;;;;;222543;1266;22613;-60
2023/08/27 19:19:54;;;;;;;8.00;2.60;;;24.90;67.70;;;;;;222516;1261;24202;-55
2023/08/27 19:25:09;;;;;;;8.10;2.80;;;25.00;68.20;;;;;;222722;1260;25271;-58
2023/08/27 19:30:16;;;;;;;2.40;2.00;;;25.00;67.40;;;;;;222399;1253;22575;-58
2023/08/27 19:35:26;;;;;;;3.00;2.50;;;25.00;67.20;;;;;;222899;1263;22758;-59
2023/08/27 19:40:30;;;;;;;4.30;2.10;;;24.80;67.50;;;;;;222841;1261;23910;-59
2023/08/27 19:45:38;;;;;;;5.90;2.20;;;24.70;68.70;;;;;;222610;1254;24305;-58
2023/08/27 19:50:46;;;;;;;3.00;2.10;;;24.80;68.10;;;;;;222784;1254;22529;-58
2023/08/27 19:55:55;;;;;;;4.10;2.20;;;24.90;67.80;;;;;;222479;1253;22536;-59
2023/08/27 20:01:01;;;;;;;5.00;2.20;;;24.90;69.00;;;;;;222737;1260;22641;-59
2023/08/27 20:06:10;;;;;;;7.00;2.70;;;24.80;68.00;;;;;;222504;1263;24173;-59
2023/08/27 20:11:19;;;;;;;5.50;2.70;;;24.70;68.30;;;;;;222515;1264;25408;-59
2023/08/27 20:16:28;;;;;;;4.80;2.50;;;24.70;68.60;;;;;;222408;1266;22774;-57
2023/08/27 20:21:32;;;;;;;4.40;3.00;;;24.70;69.20;;;;;;222761;1263;25324;-57
2023/08/27 20:26:44;;;;;;;5.20;2.90;;;24.60;69.20;;;;;;222478;1263;25310;-60
2023/08/27 20:31:49;;;;;;;11.40;2.80;;;24.80;69.10;;;;;;222589;1246;26626;-67
2023/08/27 20:36:54;;;;;;;5.40;2.40;;;25.00;69.20;;;;;;222790;1254;22523;-65
2023/08/27 20:42:06;;;;;;;2.80;2.40;;;24.90;68.20;;;;;;222612;1263;22658;-67
2023/08/27 20:47:18;;;;;;;2.90;2.70;;;24.90;67.60;;;;;;222815;1261;25563;-68
2023/08/27 20:52:22;;;;;;;4.70;2.20;;;25.00;67.50;;;;;;222205;1254;24193;-55
2023/08/27 20:57:31;;;;;;;3.20;2.40;;;24.90;68.00;;;;;;222787;1260;22810;-57
2023/08/27 21:02:34;;;;;;;5.10;2.00;;;25.00;68.10;;;;;;222140;1261;23005;-55
2023/08/27 21:07:37;;;;;;;2.20;1.80;;;25.20;68.50;;;;;;223167;1261;24409;-54
2023/08/27 21:12:40;;;;;;;7.20;2.50;;;25.30;68.00;;;;;;222724;1254;24230;-60
2023/08/27 21:17:43;;;;;;;9.50;4.20;;;25.30;67.70;;;;;;222538;1260;22526;-58
2023/08/27 21:22:46;;;;;;;4.00;2.40;;;25.40;67.50;;;;;;222439;1264;22633;-60
2023/08/27 21:27:49;;;;;;;2.40;2.10;;;25.30;67.30;;;;;;222213;1258;22549;-59
2023/08/27 21:32:52;;;;;;;2.10;1.90;;;25.30;67.60;;;;;;222542;1253;22531;-58
2023/08/27 21:37:55;;;;;;;3.00;2.20;;;25.20;68.20;;;;;;222519;1268;25448;-56
2023/08/27 21:42:58;;;;;;;2.60;2.20;;;25.30;68.20;;;;;;222214;1256;22612;-58
2023/08/27 21:48:01;;;;;;;3.60;2.20;;;25.30;67.80;;;;;;222165;1268;22609;-58
2023/08/27 21:53:04;;;;;;;10.10;2.50;;;25.20;68.10;;;;;;222412;1261;22556;-57
2023/08/27 21:58:07;;;;;;;2.70;2.40;;;25.20;67.40;;;;;;222105;1256;22582;-58
2023/08/27 22:03:10;;;;;;;3.60;2.20;;;25.00;68.00;;;;;;222438;1260;24203;-58
2023/08/27 22:08:13;;;;;;;2.80;2.00;;;24.90;68.10;;;;;;222355;1260;24311;-57
2023/08/27 22:13:16;;;;;;;2.30;2.10;;;24.90;68.00;;;;;;222577;1256;22635;-60
2023/08/27 22:18:19;;;;;;;3.30;2.10;;;24.90;68.50;;;;;;222437;1263;22639;-56
2023/08/27 22:23:22;;;;;;;5.50;2.10;;;24.90;67.90;;;;;;222439;1259;24029;-57
2023/08/27 22:28:25;;;;;;;2.50;2.30;;;25.00;67.70;;;;;;222718;1255;22643;-58
2023/08/27 22:33:31;;;;;;;2.40;2.20;;;25.10;68.00;;;;;;222456;1266;25424;-58
2023/08/27 22:38:33;;;;;;;2.00;1.90;;;25.10;67.80;;;;;;222436;1263;22632;-57
2023/08/27 22:43:36;;;;;;;3.20;1.90;;;25.10;67.30;;;;;;222351;1266;22541;-58
2023/08/27 22:48:39;;;;;;;2.50;2.20;;;25.10;67.40;;;;;;222204;1266;22543;-58
2023/08/27 22:53:49;;;;;;;5.20;2.60;;;25.10;67.90;;;;;;222060;1263;25202;-57
2023/08/27 22:58:52;;;;;;;13.80;3.00;;;25.20;68.20;;;;;;223476;1251;25406;-58
2023/08/27 23:03:55;;;;;;;5.30;2.60;;;25.20;67.30;;;;;;222508;1263;24741;-58
2023/08/27 23:09:00;;;;;;;3.50;2.40;;;25.20;67.10;;;;;;222325;1254;22503;-57
2023/08/27 23:14:04;;;;;;;6.00;2.70;;;25.10;67.10;;;;;;222389;1260;24196;-57
2023/08/27 23:19:10;;;;;;;3.40;2.40;;;25.00;67.10;;;;;;222449;1263;22539;-59
2023/08/27 23:24:23;;;;;;;2.90;2.10;;;24.90;67.10;;;;;;222505;1257;22575;-59
2023/08/27 23:29:26;;;;;;;2.50;2.30;;;25.10;66.90;;;;;;222596;1266;22508;-61
2023/08/27 23:34:32;;;;;;;2.70;2.30;;;25.10;66.60;;;;;;222291;1268;24076;-54
2023/08/27 23:39:37;;;;;;;3.80;2.30;;;25.00;67.10;;;;;;222458;1263;23903;-54
2023/08/27 23:44:40;;;;;;;5.70;2.50;;;24.90;67.10;;;;;;222501;1268;25388;-56
2023/08/27 23:50:06;;;;;;;6.40;2.50;;;24.90;67.90;;;;;;222405;1261;24252;-58
2023/08/27 23:55:09;;;;;;;2.60;2.40;;;24.90;67.60;;;;;;222292;1263;25274;-55
